Impacts TAF Board
For situational awareness. Not to be used for flight planning purposes.
IDs:

KTPA - Tampa Intl Arpt, FL, US

Issued at 2320 UTC 02 Oct 2022
Updated at 2321 UTC 02 Oct 2022
Potential Impact None Slight Moderate High
Time<<03/12Z 03/13Z 03/14Z 03/15Z 03/16Z 03/17Z 03/18Z 03/19Z 03/20Z 03/21Z 03/22Z 03/23Z 04/00Z>>
Type PRVL PRVL PRVL PRVL PRVL PRVL PRVL PRVL PRVL PRVL PRVL PRVL PRVL
VIS >6 >6 >6 >6 >6 >6 >6 >6 >6 >6 >6 >6 >6
CIG -- -- -- -- -- -- -- -- -- -- -- -- --
Cover SKC SKC FEW FEW SCT SCT SCT SCT SCT SCT SCT SCT SCT
FltCat VFR VFR VFR VFR VFR VFR VFR VFR VFR VFR VFR VFR VFR
WX -- -- -- -- -- -- -- -- -- -- -- -- --
WDir VRB VRB 20 20 330 330 330 330 330 330 330 330 330
WSpd 4 4 5 5 8 8 8 8 8 8 8 8 8
WGst -- -- -- -- -- -- -- -- -- -- -- -- --
WSHgt -- -- -- -- -- -- -- -- -- -- -- -- --
WSDir -- -- -- -- -- -- -- -- -- -- -- -- --
WSSpd -- -- -- -- -- -- -- -- -- -- -- -- --
Raw TAF
KTPA 022320Z 0300/0406 32009KT P6SM SKC
  FM030200 VRB04KT P6SM SKC
  FM031400 02005KT P6SM FEW250
  FM031600 33008KT P6SM FEW040 SCT250
  FM040200 VRB04KT P6SM SCT250


METAR Board
Radar Display
Forecast Discussion
For situational awareness. Not to be used for flight planning purposes.